Time;durP1;ratioP1;P1;durP2;ratioP2;P2;SDS_P1;SDS_P2;PMS_P1;PMS_P2;Temp;Humidity;BMP_temperature;BMP_pressure;BME280_temperature;BME280_humidity;BME280_pressure;Samples;Min_cycle;Max_cycle;Signal;HPM_P1;HPM_P2
2021/10/09 00:02:03;;;;;;;;;;;;;;;12.10;100.00;100324.03;4972422;28;19963;-77
2021/10/09 00:04:29;;;;;;;;;;;;;;;12.50;100.00;100319.91;4969372;28;20032;-77
2021/10/09 00:06:54;;;;;;;;;;;;;;;12.62;100.00;100317.06;4983843;28;21139;-77
2021/10/09 00:09:20;;;;;;;;;;;;;;;12.72;100.00;100317.75;4920434;28;19923;-77
2021/10/09 00:11:45;;;;;;;;;;;;;;;12.43;100.00;100321.75;4914230;28;20413;-77
2021/10/09 00:14:11;;;;;;;;;;;;;;;12.69;100.00;100318.66;4957103;28;20030;-77
2021/10/09 00:16:37;;;;;;;;;;;;;;;12.47;100.00;100307.88;4982920;28;19923;-77
2021/10/09 00:19:03;;;;;;;;;;;;;;;12.34;100.00;100311.59;4960763;28;19941;-77
2021/10/09 00:21:28;;;;;;;;;;;;;;;12.35;100.00;100316.69;4944244;28;20397;-78
2021/10/09 00:23:53;;;;;;;;;;;;;;;12.18;100.00;100307.53;4955617;28;20413;-77
2021/10/09 00:26:19;;;;;;;;;;;;;;;12.17;100.00;100308.44;4896582;28;19974;-77
2021/10/09 00:28:44;;;;;;;;;;;;;;;12.26;100.00;100314.28;4974609;28;20032;-77
2021/10/09 00:31:09;;;;;;;;;;;;;;;12.30;100.00;100321.09;4987086;28;20030;-77
2021/10/09 00:33:35;;;;;;;;;;;;;;;12.28;100.00;100319.44;4978367;28;19949;-77
2021/10/09 00:36:00;;;;;;;;;;;;;;;12.39;100.00;100314.94;4939527;28;19955;-77
2021/10/09 00:38:25;;;;;;;;;;;;;;;12.42;100.00;100316.59;4972284;28;19919;-77
2021/10/09 00:40:51;;;;;;;;;;;;;;;12.09;100.00;100312.00;4972785;28;19951;-77
2021/10/09 00:43:16;;;;;;;;;;;;;;;12.35;100.00;100318.44;4966958;28;19923;-77
2021/10/09 00:45:52;;;;;;;;;;;;;;;12.14;100.00;100311.94;4979356;28;19954;-78
2021/10/09 00:48:17;;;;;;;;;;;;;;;12.20;100.00;100318.72;4977227;28;20458;-77
2021/10/09 00:50:42;;;;;;;;;;;;;;;12.27;100.00;100307.38;4965131;28;19931;-77
2021/10/09 00:53:07;;;;;;;;;;;;;;;12.04;100.00;100313.81;4898741;28;20346;-78
2021/10/09 00:55:33;;;;;;;;;;;;;;;11.60;100.00;100317.06;4972226;28;19919;-77
2021/10/09 00:57:58;;;;;;;;;;;;;;;11.39;100.00;100318.25;4991139;28;20525;-77
2021/10/09 01:00:24;;;;;;;;;;;;;;;11.14;100.00;100323.72;4966411;28;19923;-77
2021/10/09 01:02:49;;;;;;;;;;;;;;;11.08;100.00;100323.81;4913140;28;19926;-77
2021/10/09 01:05:14;;;;;;;;;;;;;;;11.17;100.00;100323.69;4983952;28;20045;-77
2021/10/09 01:07:40;;;;;;;;;;;;;;;11.26;100.00;100317.56;4970358;28;19923;-77
2021/10/09 01:10:05;;;;;;;;;;;;;;;11.21;100.00;100304.72;4987578;28;19926;-77
2021/10/09 01:12:31;;;;;;;;;;;;;;;11.01;100.00;100317.88;4987630;28;19925;-77
2021/10/09 01:14:56;;;;;;;;;;;;;;;10.68;100.00;100314.84;4924610;28;19923;-77
2021/10/09 01:17:21;;;;;;;;;;;;;;;11.05;100.00;100326.44;4980820;28;19954;-78
2021/10/09 01:19:47;;;;;;;;;;;;;;;11.45;100.00;100328.47;4927697;28;19923;-77
2021/10/09 01:22:12;;;;;;;;;;;;;;;11.38;100.00;100319.09;4937993;28;19949;-78
2021/10/09 01:24:38;;;;;;;;;;;;;;;11.53;100.00;100316.31;4911105;28;19926;-77
2021/10/09 01:27:03;;;;;;;;;;;;;;;11.83;100.00;100308.97;4947065;28;19923;-77
2021/10/09 01:29:28;;;;;;;;;;;;;;;11.90;100.00;100305.44;4959027;28;19927;-77
2021/10/09 01:31:54;;;;;;;;;;;;;;;11.83;100.00;100303.81;4985195;28;19919;-77
2021/10/09 01:34:20;;;;;;;;;;;;;;;11.70;100.00;100298.84;4972356;28;19925;-77
2021/10/09 01:36:45;;;;;;;;;;;;;;;12.24;100.00;100304.88;4966397;28;19923;-77
2021/10/09 01:39:14;;;;;;;;;;;;;;;11.96;100.00;100302.75;4925519;28;19946;-77
2021/10/09 01:41:40;;;;;;;;;;;;;;;12.10;100.00;100303.38;4957383;28;20763;-77
2021/10/09 01:44:06;;;;;;;;;;;;;;;12.12;100.00;100306.78;4977981;28;19965;-77
2021/10/09 01:46:31;;;;;;;;;;;;;;;12.19;100.00;100299.78;4956662;28;19923;-77
2021/10/09 01:48:57;;;;;;;;;;;;;;;11.64;100.00;100304.09;4974639;28;19926;-77
2021/10/09 01:51:22;;;;;;;;;;;;;;;11.66;100.00;100301.50;4963056;28;20803;-77
2021/10/09 01:53:47;;;;;;;;;;;;;;;11.88;100.00;100291.69;4963663;28;19923;-77
2021/10/09 01:56:13;;;;;;;;;;;;;;;11.98;100.00;100288.09;4986987;28;20384;-77
2021/10/09 01:58:38;;;;;;;;;;;;;;;12.17;100.00;100292.94;4963896;28;19914;-77
2021/10/09 02:01:03;;;;;;;;;;;;;;;12.10;100.00;100289.63;4979859;28;19924;-78
2021/10/09 02:03:29;;;;;;;;;;;;;;;12.04;100.00;100288.00;4931738;28;19932;-77
2021/10/09 02:05:54;;;;;;;;;;;;;;;11.73;100.00;100287.63;4964269;28;19919;-77
2021/10/09 02:08:19;;;;;;;;;;;;;;;11.71;100.00;100292.81;4928687;28;19919;-77
2021/10/09 02:13:21;;;;;;;;;;;;;;;11.78;100.00;100295.28;4928176;28;19923;-77
2021/10/09 02:15:56;;;;;;;;;;;;;;;11.86;100.00;100293.41;4923465;28;19930;-77
2021/10/09 02:26:15;;;;;;;;;;;;;;;11.55;100.00;100286.19;4964690;28;19935;-78
2021/10/09 02:28:40;;;;;;;;;;;;;;;10.86;100.00;100284.56;4975042;28;19919;-77
2021/10/09 02:31:05;;;;;;;;;;;;;;;10.31;100.00;100288.63;4981103;28;19960;-77
2021/10/09 02:33:31;;;;;;;;;;;;;;;10.27;100.00;100281.78;4974036;28;19954;-77
2021/10/09 02:35:56;;;;;;;;;;;;;;;10.14;100.00;100286.19;4954225;28;19930;-78
2021/10/09 02:38:21;;;;;;;;;;;;;;;10.87;100.00;100281.97;4914083;28;19938;-77
2021/10/09 02:40:47;;;;;;;;;;;;;;;10.84;100.00;100279.44;4945688;28;19923;-77
2021/10/09 02:43:13;;;;;;;;;;;;;;;10.75;100.00;100283.84;4937577;28;19964;-77
2021/10/09 02:45:38;;;;;;;;;;;;;;;10.95;100.00;100284.47;4952648;28;19921;-77
2021/10/09 02:48:04;;;;;;;;;;;;;;;11.11;100.00;100282.53;4968706;28;20237;-77
2021/10/09 02:50:30;;;;;;;;;;;;;;;11.15;100.00;100279.00;4969338;28;19971;-77
2021/10/09 02:52:55;;;;;;;;;;;;;;;10.97;100.00;100274.09;4965662;28;20393;-77
2021/10/09 02:55:21;;;;;;;;;;;;;;;10.58;100.00;100274.59;4981788;28;20059;-77
2021/10/09 02:57:46;;;;;;;;;;;;;;;10.23;100.00;100272.38;4932853;28;20081;-77
2021/10/09 03:00:12;;;;;;;;;;;;;;;10.08;100.00;100275.97;4976700;28;20180;-78
2021/10/09 03:02:38;;;;;;;;;;;;;;;10.19;100.00;100273.25;4930575;28;20016;-77
2021/10/09 03:05:03;;;;;;;;;;;;;;;10.33;100.00;100275.72;4928681;28;19923;-77
2021/10/09 03:07:28;;;;;;;;;;;;;;;10.72;100.00;100273.56;4957282;28;19985;-77
2021/10/09 03:09:54;;;;;;;;;;;;;;;10.64;100.00;100268.50;4954797;28;19919;-77
2021/10/09 03:12:19;;;;;;;;;;;;;;;10.83;100.00;100267.44;4932223;28;19923;-78
2021/10/09 03:14:44;;;;;;;;;;;;;;;10.84;100.00;100268.28;4956406;28;20008;-77
2021/10/09 03:17:10;;;;;;;;;;;;;;;10.69;100.00;100269.31;4980937;28;19930;-77
2021/10/09 03:19:35;;;;;;;;;;;;;;;10.69;100.00;100269.31;4937958;28;19923;-77
2021/10/09 03:22:00;;;;;;;;;;;;;;;10.80;100.00;100267.44;4981413;28;19925;-77
2021/10/09 03:24:26;;;;;;;;;;;;;;;10.69;100.00;100274.47;4952029;28;19930;-77
2021/10/09 03:26:51;;;;;;;;;;;;;;;10.79;100.00;100268.34;4945711;28;19923;-77
2021/10/09 03:29:16;;;;;;;;;;;;;;;10.67;100.00;100265.88;4982626;28;19923;-77
2021/10/09 03:31:43;;;;;;;;;;;;;;;10.48;100.00;100262.69;4913250;28;20627;-77
2021/10/09 03:34:08;;;;;;;;;;;;;;;10.64;100.00;100265.94;4975939;28;19970;-78
2021/10/09 03:36:34;;;;;;;;;;;;;;;10.52;100.00;100266.09;4920420;28;20509;-77
2021/10/09 03:38:59;;;;;;;;;;;;;;;10.64;100.00;100264.22;4982594;28;20015;-77
2021/10/09 03:41:25;;;;;;;;;;;;;;;10.85;100.00;100265.66;4918661;28;19936;-77
2021/10/09 03:43:50;;;;;;;;;;;;;;;10.33;100.00;100268.00;4979563;28;20285;-77
2021/10/09 03:46:21;;;;;;;;;;;;;;;10.63;100.00;100267.66;4961576;28;19930;-77
2021/10/09 03:54:04;;;;;;;;;;;;;;;11.13;100.00;100272.19;4926851;28;19926;-77
2021/10/09 03:56:29;;;;;;;;;;;;;;;10.97;100.00;100274.09;4965959;28;19927;-77
2021/10/09 03:58:55;;;;;;;;;;;;;;;10.95;100.00;100278.44;4938307;28;19942;-77
2021/10/09 04:01:20;;;;;;;;;;;;;;;10.86;100.00;100275.13;4980324;28;20015;-77
2021/10/09 04:03:46;;;;;;;;;;;;;;;10.81;100.00;100274.31;4976193;28;20448;-77
2021/10/09 04:06:11;;;;;;;;;;;;;;;10.88;100.00;100275.09;4963329;28;19923;-77
2021/10/09 04:08:36;;;;;;;;;;;;;;;10.91;100.00;100272.47;4971765;28;20380;-78
2021/10/09 04:11:02;;;;;;;;;;;;;;;10.70;100.00;100271.03;4966121;28;19923;-78
2021/10/09 04:13:27;;;;;;;;;;;;;;;10.70;100.00;100270.16;4983127;28;19968;-77
2021/10/09 04:15:52;;;;;;;;;;;;;;;10.83;100.00;100272.59;4896547;28;20364;-77
2021/10/09 04:18:17;;;;;;;;;;;;;;;10.76;100.00;100270.09;4974908;28;19923;-77
2021/10/09 04:20:43;;;;;;;;;;;;;;;10.82;100.00;100263.13;4920239;28;19919;-77
2021/10/09 04:23:08;;;;;;;;;;;;;;;10.70;100.00;100271.03;4960758;28;19930;-78
2021/10/09 04:25:34;;;;;;;;;;;;;;;10.78;100.00;100264.03;4982496;28;20017;-77
2021/10/09 04:27:59;;;;;;;;;;;;;;;10.11;100.00;100267.34;4985394;28;19933;-78
2021/10/09 04:30:25;;;;;;;;;;;;;;;9.91;100.00;100267.53;4935109;28;20383;-77
2021/10/09 04:32:50;;;;;;;;;;;;;;;9.76;100.00;100263.34;4953067;28;19979;-77
2021/10/09 04:35:16;;;;;;;;;;;;;;;9.76;100.00;100260.78;4981532;28;20495;-77
2021/10/09 04:37:42;;;;;;;;;;;;;;;9.99;100.00;100261.44;4969876;28;19923;-77
2021/10/09 04:40:07;;;;;;;;;;;;;;;10.35;100.00;100259.38;4972262;28;20311;-77
2021/10/09 04:42:33;;;;;;;;;;;;;;;10.34;100.00;100257.69;4964189;28;19923;-77
2021/10/09 04:44:58;;;;;;;;;;;;;;;9.75;100.00;100256.53;4973990;28;19923;-77
2021/10/09 04:47:23;;;;;;;;;;;;;;;9.62;100.00;100255.75;4969038;28;19957;-78
2021/10/09 04:49:48;;;;;;;;;;;;;;;9.35;100.00;100259.38;4976541;28;20389;-78
2021/10/09 04:52:14;;;;;;;;;;;;;;;9.55;100.00;100260.09;4959521;28;20054;-77
2021/10/09 04:54:39;;;;;;;;;;;;;;;9.87;100.00;100256.41;4947094;28;19919;-78
2021/10/09 04:57:04;;;;;;;;;;;;;;;10.19;100.00;100250.09;4988589;28;20014;-78
2021/10/09 04:59:30;;;;;;;;;;;;;;;10.34;100.00;100247.38;4936931;28;19923;-77
2021/10/09 05:01:55;;;;;;;;;;;;;;;10.18;100.00;100248.41;4980151;28;19923;-77
2021/10/09 05:04:20;;;;;;;;;;;;;;;10.14;100.00;100249.28;4983543;28;20379;-78
2021/10/09 05:06:46;;;;;;;;;;;;;;;10.39;100.00;100249.91;4917547;28;19923;-77
2021/10/09 05:09:11;;;;;;;;;;;;;;;10.20;100.00;100254.38;4909491;28;19927;-78
2021/10/09 05:11:36;;;;;;;;;;;;;;;10.29;100.00;100253.47;4973026;28;19955;-77
2021/10/09 05:14:02;;;;;;;;;;;;;;;10.44;100.00;100248.97;4973545;28;19924;-76
2021/10/09 05:16:28;;;;;;;;;;;;;;;10.30;100.00;100257.75;4979116;28;19947;-77
2021/10/09 05:18:53;;;;;;;;;;;;;;;9.83;100.00;100254.75;4953702;28;20002;-77
2021/10/09 05:21:18;;;;;;;;;;;;;;;9.77;100.00;100257.38;4978055;28;19977;-77
2021/10/09 05:23:44;;;;;;;;;;;;;;;10.13;100.00;100257.91;4922703;28;20017;-76
2021/10/09 05:26:09;;;;;;;;;;;;;;;10.35;100.00;100258.53;4911232;28;19923;-77
2021/10/09 05:28:53;;;;;;;;;;;;;;;10.13;100.00;100265.63;4981623;28;19923;-76
2021/10/09 05:31:26;;;;;;;;;;;;;;;9.90;100.00;100265.81;4969324;28;20412;-77
2021/10/09 05:33:52;;;;;;;;;;;;;;;10.08;100.00;100259.63;4959054;28;20844;-76
2021/10/09 05:36:17;;;;;;;;;;;;;;;10.16;100.00;100257.84;4963110;28;19926;-76
2021/10/09 05:38:42;;;;;;;;;;;;;;;9.69;100.00;100262.56;4966078;28;19917;-77
2021/10/09 05:41:08;;;;;;;;;;;;;;;9.89;100.00;100264.13;4964670;28;19940;-76
2021/10/09 05:43:33;;;;;;;;;;;;;;;9.93;100.00;100264.06;4971251;28;19922;-76
2021/10/09 05:45:59;;;;;;;;;;;;;;;10.20;100.00;100270.69;4921590;28;19923;-77
2021/10/09 05:48:24;;;;;;;;;;;;;;;10.31;100.00;100270.63;4982723;28;20342;-77
2021/10/09 06:31:13;;;;;;;;;;;;;;;10.47;100.00;100289.31;4965094;28;19923;-77
2021/10/09 06:47:49;;;;;;;;;;;;;;;10.54;100.00;100292.69;4963207;28;20013;-77
2021/10/09 07:01:10;;;;;;;;;;;;;;;10.72;100.00;100313.09;4908791;28;19965;-76
2021/10/09 07:03:35;;;;;;;;;;;;;;;11.23;100.00;100308.13;4909883;28;19945;-77
2021/10/09 07:06:01;;;;;;;;;;;;;;;11.14;100.00;100308.25;4988495;28;20363;-77
2021/10/09 07:08:26;;;;;;;;;;;;;;;11.41;100.00;100312.19;4949557;28;19919;-77
2021/10/09 07:10:53;;;;;;;;;;;;;;;11.66;100.00;100302.34;4968939;28;19919;-77
2021/10/09 07:13:18;;;;;;;;;;;;;;;11.56;100.00;100316.25;4913857;28;19961;-77
2021/10/09 07:15:43;;;;;;;;;;;;;;;10.95;100.00;100317.09;4973663;28;19982;-78
2021/10/09 07:18:10;;;;;;;;;;;;;;;10.81;100.00;100318.13;4970828;28;19934;-77
2021/10/09 07:20:36;;;;;;;;;;;;;;;10.94;100.00;100317.97;4944155;28;19923;-77
2021/10/09 07:23:02;;;;;;;;;;;;;;;11.60;100.00;100320.50;4955410;28;19942;-77
2021/10/09 07:25:27;;;;;;;;;;;;;;;11.63;100.00;100315.31;4904022;28;20442;-77
2021/10/09 07:27:52;;;;;;;;;;;;;;;12.05;100.00;100312.94;4986093;28;19919;-77
2021/10/09 07:30:18;;;;;;;;;;;;;;;11.00;100.00;100328.22;4925724;28;19954;-77
2021/10/09 07:32:44;;;;;;;;;;;;;;;12.00;100.00;100319.91;4963957;28;19914;-77
2021/10/09 07:35:10;;;;;;;;;;;;;;;11.75;100.00;100321.16;4972460;28;19923;-77
2021/10/09 07:37:35;;;;;;;;;;;;;;;12.08;100.00;100330.94;4910647;28;19951;-77
2021/10/09 07:40:01;;;;;;;;;;;;;;;12.11;100.00;100330.03;4967927;28;19931;-77
2021/10/09 07:42:26;;;;;;;;;;;;;;;11.51;100.00;100328.38;4965297;28;20548;-77
2021/10/09 07:44:51;;;;;;;;;;;;;;;12.10;100.00;100334.34;4947733;28;19923;-77
2021/10/09 07:47:17;;;;;;;;;;;;;;;11.55;100.00;100332.63;4972399;28;19930;-78
2021/10/09 07:49:42;;;;;;;;;;;;;;;12.47;100.00;100328.53;4957082;28;19923;-77
2021/10/09 07:52:08;;;;;;;;;;;;;;;12.53;100.00;100323.25;4971065;28;20429;-77
2021/10/09 07:54:33;;;;;;;;;;;;;;;12.48;100.00;100327.69;4944375;28;20451;-77
2021/10/09 07:56:58;;;;;;;;;;;;;;;12.58;100.00;100324.91;4965947;28;19927;-77
2021/10/09 07:59:24;;;;;;;;;;;;;;;12.49;100.00;100324.19;4982348;28;20013;-77
2021/10/09 08:01:49;;;;;;;;;;;;;;;13.26;100.00;100324.41;4915861;28;20573;-77
2021/10/09 08:04:16;;;;;;;;;;;;;;;12.64;100.00;100329.97;4953171;28;19921;-77
2021/10/09 08:06:41;;;;;;;;;;;;;;;12.52;100.00;100331.03;4978329;28;19919;-77
2021/10/09 08:09:07;;;;;;;;;;;;;;;12.68;100.00;100340.22;4967347;28;20290;-77
2021/10/09 08:11:32;;;;;;;;;;;;;;;11.98;100.00;100339.75;4970973;28;19950;-77
2021/10/09 08:13:57;;;;;;;;;;;;;;;11.81;100.00;100341.69;4940294;28;20010;-77
2021/10/09 08:16:22;;;;;;;;;;;;;;;12.65;100.00;100331.66;4973424;28;20296;-76
2021/10/09 08:18:48;;;;;;;;;;;;;;;12.60;100.00;100334.34;4945231;28;19966;-76
2021/10/09 08:21:13;;;;;;;;;;;;;;;13.05;100.00;100336.06;4952395;28;19954;-77
2021/10/09 08:23:51;;;;;;;;;;;;;;;12.37;100.00;100339.09;4960567;28;19919;-77
2021/10/09 08:39:38;;;;;;;;;;;;;;;13.78;100.00;100346.53;4970739;28;20057;-77
2021/10/09 08:42:03;;;;;;;;;;;;;;;14.30;100.00;100346.97;4977620;28;20014;-76
2021/10/09 08:44:28;;;;;;;;;;;;;;;14.17;100.00;100344.72;4982866;28;19923;-77
2021/10/09 08:46:54;;;;;;;;;;;;;;;13.06;100.00;100353.28;4983620;28;19919;-77
2021/10/09 08:49:19;;;;;;;;;;;;;;;14.60;100.00;100341.03;4967498;28;19934;-77
2021/10/09 08:51:45;;;;;;;;;;;;;;;14.97;100.00;100344.34;4908073;28;19933;-76
2021/10/09 08:54:10;;;;;;;;;;;;;;;14.25;100.00;100346.25;4968632;28;20394;-77
2021/10/09 08:56:37;;;;;;;;;;;;;;;14.06;100.00;100353.66;4987575;28;19958;-77
2021/10/09 08:59:06;;;;;;;;;;;;;;;14.09;100.00;100351.81;4976317;28;19923;-77
2021/10/09 09:01:41;;;;;;;;;;;;;;;14.17;100.00;100352.50;4905004;28;19938;-76
2021/10/09 09:39:10;;;;;;;;;;;;;;;15.58;100.00;100331.31;4966719;28;19962;-76
2021/10/09 09:42:01;;;;;;;;;;;;;;;15.48;100.00;100328.97;4914288;28;19924;-77
2021/10/09 09:44:27;;;;;;;;;;;;;;;14.93;100.00;100333.19;4911100;28;19919;-76
2021/10/09 09:47:06;;;;;;;;;;;;;;;15.32;100.00;100325.13;4964057;28;20298;-77
2021/10/09 09:49:31;;;;;;;;;;;;;;;15.92;100.00;100325.91;4962714;28;20586;-76
2021/10/09 09:51:57;;;;;;;;;;;;;;;16.93;100.00;100313.75;4979634;28;19935;-76
2021/10/09 09:54:27;;;;;;;;;;;;;;;15.54;100.00;100330.53;4953395;28;19941;-77
2021/10/09 09:57:02;;;;;;;;;;;;;;;16.79;100.00;100321.19;4974230;28;19930;-76
2021/10/09 09:59:31;;;;;;;;;;;;;;;16.86;100.00;100320.09;4930152;28;20377;-76
2021/10/09 10:02:03;;;;;;;;;;;;;;;17.30;100.00;100320.16;4978227;28;19907;-76
2021/10/09 10:04:32;;;;;;;;;;;;;;;18.08;100.00;100318.78;4942238;28;20289;-77
2021/10/09 10:07:00;;;;;;;;;;;;;;;16.76;100.00;100323.88;4917780;28;20655;-77
2021/10/09 10:09:30;;;;;;;;;;;;;;;16.12;100.00;100321.78;4888450;28;19919;-75
2021/10/09 10:12:02;;;;;;;;;;;;;;;16.54;100.00;100323.81;4973900;28;19923;-76
2021/10/09 10:14:28;;;;;;;;;;;;;;;16.81;100.00;100319.38;4971915;28;19926;-76
2021/10/09 10:16:54;;;;;;;;;;;;;;;17.08;100.00;100317.50;4964332;28;19927;-77
2021/10/09 10:19:19;;;;;;;;;;;;;;;18.81;100.00;100315.59;4958061;28;20169;-76
2021/10/09 10:21:45;;;;;;;;;;;;;;;18.36;100.00;100313.25;4939948;28;19923;-76
2021/10/09 10:24:12;;;;;;;;;;;;;;;18.84;100.00;100314.66;4964765;28;19923;-76
2021/10/09 10:26:37;;;;;;;;;;;;;;;19.01;100.00;100316.47;4964206;28;20335;-77
2021/10/09 10:29:02;;;;;;;;;;;;;;;17.42;100.00;100308.41;4955415;28;19930;-76
2021/10/09 10:31:28;;;;;;;;;;;;;;;17.86;100.00;100311.00;4908136;28;19921;-77
2021/10/09 10:34:12;;;;;;;;;;;;;;;16.55;100.00;100312.50;4929138;28;20334;-76
2021/10/09 10:36:38;;;;;;;;;;;;;;;19.25;100.00;100308.41;4914887;28;20439;-77
2021/10/09 10:39:04;;;;;;;;;;;;;;;17.91;100.00;100312.53;4947637;28;20002;-76
2021/10/09 10:41:47;;;;;;;;;;;;;;;18.18;98.65;100302.69;4966289;28;19939;-75
2021/10/09 10:44:31;;;;;;;;;;;;;;;18.07;100.00;100306.69;4956906;28;19921;-74
2021/10/09 10:47:01;;;;;;;;;;;;;;;20.20;100.00;100298.56;4912659;28;19919;-76
2021/10/09 10:49:55;;;;;;;;;;;;;;;17.98;100.00;100303.53;4969565;28;19981;-77
2021/10/09 10:52:40;;;;;;;;;;;;;;;20.78;98.38;100294.72;4951450;28;19931;-77
2021/10/09 10:55:06;;;;;;;;;;;;;;;18.87;92.42;100300.63;4960196;28;19934;-77
2021/10/09 10:57:31;;;;;;;;;;;;;;;18.62;100.00;100300.84;4911285;28;20513;-77
2021/10/09 11:00:11;;;;;;;;;;;;;;;18.87;92.10;100300.63;4959094;28;19930;-75
2021/10/09 11:02:42;;;;;;;;;;;;;;;20.40;88.27;100295.75;4975353;28;19978;-77
2021/10/09 11:05:11;;;;;;;;;;;;;;;18.03;96.61;100305.09;4961493;28;19919;-77
2021/10/09 11:07:37;;;;;;;;;;;;;;;17.90;94.87;100305.63;4978791;28;19939;-77
2021/10/09 11:10:04;;;;;;;;;;;;;;;19.65;84.73;100297.75;4990095;28;20280;-77
2021/10/09 11:12:30;;;;;;;;;;;;;;;19.10;85.72;100300.38;4910374;28;19980;-77
2021/10/09 11:15:05;;;;;;;;;;;;;;;19.85;92.54;100293.34;4982335;28;19981;-78
2021/10/09 11:17:40;;;;;;;;;;;;;;;21.72;85.53;100293.00;4976855;28;19938;-77
2021/10/09 11:20:12;;;;;;;;;;;;;;;18.33;92.30;100298.56;4991262;28;19921;-78
2021/10/09 11:22:41;;;;;;;;;;;;;;;20.23;90.24;100287.94;4962496;28;19923;-77
2021/10/09 11:25:07;;;;;;;;;;;;;;;20.14;88.96;100283.19;4889990;28;19923;-76
2021/10/09 11:27:36;;;;;;;;;;;;;;;19.92;86.05;100279.03;4952580;28;19923;-77
2021/10/09 11:30:08;;;;;;;;;;;;;;;21.27;94.47;100277.13;4923330;28;19941;-77
2021/10/09 11:32:38;;;;;;;;;;;;;;;17.97;93.46;100280.13;4973107;28;19986;-77
2021/10/09 11:35:04;;;;;;;;;;;;;;;19.00;95.43;100281.69;4942503;28;19985;-78
2021/10/09 11:37:29;;;;;;;;;;;;;;;18.58;92.83;100276.63;4970731;28;20428;-77
2021/10/09 11:39:57;;;;;;;;;;;;;;;21.21;79.95;100264.41;4968103;28;19924;-77
2021/10/09 11:42:29;;;;;;;;;;;;;;;20.56;67.65;100268.81;4941094;28;20295;-77
2021/10/09 11:45:14;;;;;;;;;;;;;;;20.35;79.87;100274.25;4964762;28;19923;-77
2021/10/09 11:56:01;;;;;;;;;;;;;;;19.76;82.78;100267.66;4951273;28;20012;-78
2021/10/09 11:58:29;;;;;;;;;;;;;;;19.08;82.40;100272.66;4971273;28;19923;-77
2021/10/09 12:00:54;;;;;;;;;;;;;;;19.65;79.31;100261.16;4952918;28;19926;-78
2021/10/09 12:03:35;;;;;;;;;;;;;;;20.64;77.24;100264.00;4916802;28;19972;-77
2021/10/09 12:06:09;;;;;;;;;;;;;;;20.83;83.10;100256.88;4893602;28;19930;-78
2021/10/09 12:08:41;;;;;;;;;;;;;;;20.80;77.96;100259.66;4959870;28;19926;-77
2021/10/09 12:11:06;;;;;;;;;;;;;;;19.43;79.41;100264.00;4893522;28;19934;-77
2021/10/09 12:13:32;;;;;;;;;;;;;;;21.87;82.63;100265.88;4913817;28;19916;-78
2021/10/09 12:16:07;;;;;;;;;;;;;;;21.15;76.81;100262.09;4965800;28;19927;-78
2021/10/09 12:19:07;;;;;;;;;;;;;;;20.83;72.41;100267.34;4916966;28;19926;-76
2021/10/09 12:21:37;;;;;;;;;;;;;;;20.03;80.97;100266.28;4927124;29;19923;-77
2021/10/09 12:24:12;;;;;;;;;;;;;;;20.32;71.49;100256.09;4983819;28;20398;-77
2021/10/09 12:26:37;;;;;;;;;;;;;;;19.27;75.66;100270.00;4990638;28;19919;-77
2021/10/09 12:29:06;;;;;;;;;;;;;;;21.21;73.68;100260.91;4941844;28;19970;-77
2021/10/09 12:31:34;;;;;;;;;;;;;;;20.73;83.05;100255.66;4923982;28;19926;-77
2021/10/09 12:33:59;;;;;;;;;;;;;;;21.87;75.26;100249.28;4912228;28;19988;-76
2021/10/09 12:36:40;;;;;;;;;;;;;;;21.49;71.57;100250.59;4973511;28;20395;-76
2021/10/09 12:39:18;;;;;;;;;;;;;;;20.52;72.11;100251.56;4972539;28;19955;-77
2021/10/09 12:41:43;;;;;;;;;;;;;;;21.41;76.17;100254.59;4970611;28;19919;-77
2021/10/09 12:44:08;;;;;;;;;;;;;;;21.67;74.33;100246.06;4980108;28;20800;-76
2021/10/09 12:46:34;;;;;;;;;;;;;;;20.18;70.26;100246.31;4979717;28;19926;-77
2021/10/09 12:48:59;;;;;;;;;;;;;;;19.77;70.53;100241.44;4969764;28;19923;-77
2021/10/09 12:51:24;;;;;;;;;;;;;;;20.79;70.15;100239.63;4960360;28;19942;-77
2021/10/09 12:53:53;;;;;;;;;;;;;;;20.77;75.17;100246.72;4952668;28;19919;-77
2021/10/09 12:56:18;;;;;;;;;;;;;;;19.96;74.43;100238.75;4970030;28;19969;-77
2021/10/09 12:58:56;;;;;;;;;;;;;;;20.70;73.58;100234.91;4973513;28;19915;-77
2021/10/09 13:01:21;;;;;;;;;;;;;;;19.89;72.96;100237.38;4972886;28;19981;-76
2021/10/09 13:03:46;;;;;;;;;;;;;;;19.96;72.68;100233.53;4918804;28;19962;-77
2021/10/09 13:06:12;;;;;;;;;;;;;;;19.51;73.16;100232.25;4963707;28;19919;-77
2021/10/09 13:08:38;;;;;;;;;;;;;;;19.82;68.86;100230.78;4978264;28;20065;-76
2021/10/09 13:11:03;;;;;;;;;;;;;;;19.23;72.27;100232.78;4954038;28;19915;-77
2021/10/09 13:13:29;;;;;;;;;;;;;;;19.37;71.68;100232.09;4969436;28;20057;-77
2021/10/09 13:15:54;;;;;;;;;;;;;;;19.46;69.45;100236.03;4947365;28;19975;-77
2021/10/09 13:18:19;;;;;;;;;;;;;;;19.93;75.28;100223.19;4947049;28;20022;-76
2021/10/09 13:20:45;;;;;;;;;;;;;;;19.82;68.44;100225.53;4926442;28;20013;-76
2021/10/09 13:23:10;;;;;;;;;;;;;;;19.07;70.54;100235.25;4925157;28;19989;-77
2021/10/09 13:25:35;;;;;;;;;;;;;;;19.07;69.07;100232.66;4973419;28;19919;-76
2021/10/09 13:28:01;;;;;;;;;;;;;;;18.67;75.21;100224.03;4972206;28;19915;-77
2021/10/09 13:30:26;;;;;;;;;;;;;;;19.79;73.97;100221.28;4893998;28;20088;-75
2021/10/09 13:32:51;;;;;;;;;;;;;;;19.90;70.60;100218.16;4969612;28;19918;-77
2021/10/09 13:35:17;;;;;;;;;;;;;;;18.22;74.18;100222.56;4969246;28;19920;-77
2021/10/09 13:37:57;;;;;;;;;;;;;;;18.76;73.52;100217.53;4930879;28;20825;-77
2021/10/09 13:40:22;;;;;;;;;;;;;;;18.96;76.62;100214.03;4921978;28;19919;-76
2021/10/09 13:42:48;;;;;;;;;;;;;;;18.26;78.44;100208.47;4966803;28;19973;-77
2021/10/09 13:45:14;;;;;;;;;;;;;;;18.03;77.27;100217.31;4958417;28;19919;-77
2021/10/09 13:47:42;;;;;;;;;;;;;;;18.00;78.66;100206.19;4952178;28;19919;-77
2021/10/09 13:50:08;;;;;;;;;;;;;;;18.01;76.34;100207.88;4921654;28;19962;-78
2021/10/09 13:52:33;;;;;;;;;;;;;;;18.29;77.75;100208.38;4955532;28;20390;-77
2021/10/09 13:54:59;;;;;;;;;;;;;;;17.56;78.82;100207.97;4983237;28;19950;-77
2021/10/09 13:57:24;;;;;;;;;;;;;;;17.72;80.97;100197.75;4978870;28;19957;-77
2021/10/09 13:59:49;;;;;;;;;;;;;;;18.38;79.78;100199.25;4975534;28;19938;-77
2021/10/09 14:02:15;;;;;;;;;;;;;;;17.81;83.58;100195.66;4970636;28;20531;-77
2021/10/09 14:04:40;;;;;;;;;;;;;;;17.76;84.01;100199.31;4975776;28;19923;-77
2021/10/09 14:07:06;;;;;;;;;;;;;;;18.29;79.24;100202.28;4930268;28;19969;-77
2021/10/09 14:09:31;;;;;;;;;;;;;;;18.39;80.59;100199.19;4958838;28;19927;-77
2021/10/09 14:11:56;;;;;;;;;;;;;;;18.21;78.80;100196.56;4957121;28;19926;-76
2021/10/09 14:14:24;;;;;;;;;;;;;;;18.31;81.04;100201.28;4964788;28;19923;-77
2021/10/09 14:16:50;;;;;;;;;;;;;;;17.61;81.86;100193.88;4950395;28;19927;-77
2021/10/09 14:19:15;;;;;;;;;;;;;;;18.36;86.60;100195.91;4970664;28;19919;-77
2021/10/09 14:21:40;;;;;;;;;;;;;;;17.87;82.17;100196.28;4921872;28;20114;-77
2021/10/09 14:24:06;;;;;;;;;;;;;;;18.03;84.01;100190.41;4979553;28;20334;-77
2021/10/09 14:26:31;;;;;;;;;;;;;;;18.22;82.43;100186.06;4975178;28;19930;-77
2021/10/09 14:28:56;;;;;;;;;;;;;;;18.05;83.67;100189.44;4922456;28;19990;-77
2021/10/09 14:31:22;;;;;;;;;;;;;;;18.35;82.34;100184.59;4967923;28;20065;-77
2021/10/09 14:33:48;;;;;;;;;;;;;;;17.68;85.29;100179.72;4897536;28;20041;-77
2021/10/09 14:36:13;;;;;;;;;;;;;;;18.11;82.80;100183.94;4976918;28;20451;-77
2021/10/09 14:38:38;;;;;;;;;;;;;;;18.10;84.81;100178.78;4969158;28;20502;-77
2021/10/09 14:41:04;;;;;;;;;;;;;;;18.25;83.72;100172.91;4922791;28;19930;-77
2021/10/09 14:43:30;;;;;;;;;;;;;;;18.33;80.71;100173.38;4981946;28;20310;-77
2021/10/09 14:46:03;;;;;;;;;;;;;;;17.68;79.84;100172.75;4967634;28;19923;-77
2021/10/09 14:48:35;;;;;;;;;;;;;;;17.90;77.54;100170.09;4922831;28;19923;-77